Terminal Aerodrome Forecast
Issued by NWS Quad Cities IA IL

Home | Current Version | Previous Version | Text Only | Print | Product List | Glossary On
Versions: 1 2 3 4 5 6 7 8 9 10 11 12 13 14 15 16 17 18 19 20 21 22 23 24 25 26 27 28 29 30 31 32 33 34
000
FTUS43 KDVN 181730
TAFMLI
TAF
KMLI 181730Z 1818/1918 11009KT P6SM BKN250
     FM190000 11005KT P6SM VCSH SCT020 BKN035 OVC120
     FM190030 10004KT 4SM -RA BR SCT015 OVC035
      TEMPO 1901/1904 2SM -RA BR BKN013 OVC025
     FM190500 10003KT 4SM BR VCSH OVC013
     FM190900 10003KT 3SM BR OVC010
     FM191500 13005KT 6SM BR SCT010=

USA.gov is the U.S. government's official web portal to all federal, state and local government web resources and services.